Time;durP1;ratioP1;P1;durP2;ratioP2;P2;SDS_P1;SDS_P2;PMS_P1;PMS_P2;Temp;Humidity;BMP_temperature;BMP_pressure;BME280_temperature;BME280_humidity;BME280_pressure;Samples;Min_cycle;Max_cycle;Signal;HPM_P1;HPM_P2
2022/05/24 00:02:11;;;;;;;11.02;6.07;;;13.70;99.90;;;;;;5045873;28;20075;-84
2022/05/24 00:04:36;;;;;;;12.13;5.88;;;13.70;99.90;;;;;;5047420;28;20428;-83
2022/05/24 00:07:02;;;;;;;8.45;5.13;;;13.70;99.90;;;;;;5030119;28;20457;-83
2022/05/24 00:09:28;;;;;;;12.95;5.78;;;13.60;99.90;;;;;;5046700;28;20113;-83
2022/05/24 00:11:54;;;;;;;10.23;5.47;;;13.60;99.90;;;;;;5047328;28;20130;-83
2022/05/24 00:15:19;;;;;;;10.50;5.85;;;13.60;99.90;;;;;;5028628;28;20037;-84
2022/05/24 00:17:07;;;;;;;12.38;6.22;;;13.60;99.90;;;;;;5046588;28;20389;-83
2022/05/24 00:19:34;;;;;;;8.95;5.60;;;13.50;99.90;;;;;;5047448;28;20493;-83
2022/05/24 00:22:00;;;;;;;11.20;5.20;;;13.50;99.90;;;;;;5046270;28;20055;-83
2022/05/24 00:24:25;;;;;;;8.88;5.50;;;13.40;99.90;;;;;;5047436;28;20506;-83
2022/05/24 00:26:51;;;;;;;14.07;6.10;;;13.40;99.90;;;;;;5046992;28;20045;-83
2022/05/24 00:29:17;;;;;;;13.10;6.38;;;13.40;99.90;;;;;;5045766;28;20044;-83
2022/05/24 00:31:42;;;;;;;10.35;6.28;;;13.30;99.90;;;;;;5047652;28;20400;-84
2022/05/24 00:34:08;;;;;;;14.25;6.55;;;13.20;99.90;;;;;;5029775;28;20083;-83
2022/05/24 00:36:35;;;;;;;11.30;6.45;;;13.20;99.90;;;;;;5030019;28;20503;-83
2022/05/24 00:39:01;;;;;;;10.93;6.00;;;13.10;99.90;;;;;;5046099;28;20037;-83
2022/05/24 00:41:33;;;;;;;12.88;6.43;;;13.30;99.90;;;;;;5046716;28;20056;-84
2022/05/24 00:44:03;;;;;;;15.57;6.35;;;13.20;99.90;;;;;;5028401;28;20056;-83
2022/05/24 00:46:44;;;;;;;11.52;6.22;;;13.60;99.90;;;;;;5030414;28;20052;-83
2022/05/24 00:49:23;;;;;;;9.75;6.53;;;13.20;99.90;;;;;;5062767;28;20496;-83
2022/05/24 00:51:54;;;;;;;12.23;6.72;;;13.30;99.90;;;;;;5029867;28;20388;-83
2022/05/24 00:54:20;;;;;;;13.40;5.95;;;13.30;99.90;;;;;;5045683;28;20056;-83
2022/05/24 00:57:11;;;;;;;10.88;5.85;;;13.30;99.90;;;;;;5045994;28;20045;-83
2022/05/24 00:59:44;;;;;;;12.50;5.30;;;13.30;99.90;;;;;;5046142;28;20049;-84
2022/05/24 01:02:10;;;;;;;8.43;4.80;;;13.20;99.90;;;;;;5046238;28;20510;-83
2022/05/24 01:04:36;;;;;;;10.60;4.68;;;13.10;99.90;;;;;;5029785;28;20416;-83
2022/05/24 01:07:03;;;;;;;11.40;5.25;;;13.10;99.90;;;;;;5046025;28;20041;-83
2022/05/24 01:09:40;;;;;;;11.25;5.00;;;13.10;99.90;;;;;;5035067;28;20040;-83
2022/05/24 01:12:11;;;;;;;9.60;5.53;;;13.00;99.90;;;;;;5065673;28;20127;-83
2022/05/24 01:14:37;;;;;;;9.82;4.75;;;13.00;99.90;;;;;;5066010;28;20039;-83
2022/05/24 01:17:03;;;;;;;10.57;5.63;;;12.90;99.90;;;;;;5066335;28;20044;-83
2022/05/24 01:19:41;;;;;;;9.93;5.03;;;12.90;99.90;;;;;;5065894;28;20090;-83
2022/05/24 01:22:46;;;;;;;9.80;4.93;;;12.80;99.90;;;;;;5066578;28;20052;-83
2022/05/24 01:25:30;;;;;;;10.50;5.32;;;12.70;99.90;;;;;;5048969;28;20139;-84
2022/05/24 01:27:57;;;;;;;11.77;5.13;;;12.70;99.90;;;;;;5066092;28;20041;-83
2022/05/24 01:30:23;;;;;;;10.15;5.10;;;12.80;99.90;;;;;;5067146;28;20143;-83
2022/05/24 01:38:20;;;;;;;16.88;5.88;;;12.50;99.90;;;;;;5069371;28;20048;-83
2022/05/24 01:40:48;;;;;;;10.20;5.32;;;12.40;99.90;;;;;;5069311;28;20484;-83
2022/05/24 01:43:16;;;;;;;12.05;5.90;;;12.30;99.90;;;;;;5068916;28;20179;-84
2022/05/24 01:45:50;;;;;;;11.48;5.75;;;12.70;99.90;;;;;;5069717;28;20041;-83
2022/05/24 01:48:20;;;;;;;10.73;5.93;;;12.30;99.90;;;;;;5064791;28;20583;-84
2022/05/24 01:50:47;;;;;;;11.20;6.00;;;12.70;99.90;;;;;;5033454;28;20049;-84
2022/05/24 01:53:18;;;;;;;12.15;6.20;;;12.20;99.90;;;;;;5032095;28;20047;-83
2022/05/24 01:55:51;;;;;;;12.30;6.82;;;12.30;99.90;;;;;;5033648;28;20140;-83
2022/05/24 01:58:18;;;;;;;12.63;7.25;;;12.30;99.90;;;;;;5048379;28;20150;-83
2022/05/24 02:00:49;;;;;;;15.35;8.65;;;12.10;99.90;;;;;;5032854;28;20040;-84
2022/05/24 02:03:15;;;;;;;19.63;8.82;;;12.10;99.90;;;;;;5032273;28;20138;-83
2022/05/24 02:05:41;;;;;;;17.27;9.80;;;12.70;99.90;;;;;;5033283;28;20488;-83
2022/05/24 02:08:10;;;;;;;13.25;9.10;;;12.10;99.90;;;;;;5048522;28;20049;-83
2022/05/24 02:10:41;;;;;;;15.75;9.82;;;12.80;99.90;;;;;;5049665;28;20052;-83
2022/05/24 02:13:08;;;;;;;15.38;8.70;;;12.10;99.90;;;;;;5031176;28;20045;-83
2022/05/24 02:15:38;;;;;;;15.00;8.50;;;12.10;99.90;;;;;;5049078;28;20187;-84
2022/05/24 02:18:10;;;;;;;15.55;8.98;;;12.00;99.90;;;;;;5033608;28;20488;-83
2022/05/24 02:20:39;;;;;;;11.20;8.03;;;12.50;99.90;;;;;;5053027;28;20052;-84
2022/05/24 02:23:06;;;;;;;15.32;7.95;;;12.10;99.90;;;;;;5050994;28;20056;-84
2022/05/24 02:25:53;;;;;;;12.38;8.18;;;12.10;99.90;;;;;;5052772;28;20045;-84
2022/05/24 02:28:22;;;;;;;14.82;8.13;;;12.10;99.90;;;;;;5033864;28;20045;-84
2022/05/24 02:30:52;;;;;;;16.15;9.18;;;12.40;99.90;;;;;;5052442;28;20127;-84
2022/05/24 02:33:20;;;;;;;18.83;9.93;;;12.10;99.90;;;;;;5035620;28;20448;-84
2022/05/24 02:35:46;;;;;;;13.90;9.13;;;12.50;99.90;;;;;;5035284;28;20076;-84
2022/05/24 02:38:13;;;;;;;16.05;9.05;;;12.30;99.90;;;;;;5051643;28;20051;-83
2022/05/24 02:43:23;;;;;;;16.73;9.10;;;12.60;99.90;;;;;;5048965;28;20423;-84
2022/05/24 02:45:49;;;;;;;14.15;9.15;;;12.30;99.90;;;;;;5052711;28;20557;-85
2022/05/24 02:48:15;;;;;;;15.02;8.45;;;12.40;99.90;;;;;;5034432;28;20052;-84
2022/05/24 02:50:41;;;;;;;14.25;8.75;;;12.40;99.90;;;;;;5035036;28;20089;-83
2022/05/24 02:53:07;;;;;;;15.10;8.15;;;12.80;99.90;;;;;;5051300;28;20086;-84
2022/05/24 02:55:33;;;;;;;15.63;9.18;;;12.50;99.90;;;;;;5051831;28;20052;-84
2022/05/24 02:57:58;;;;;;;17.25;9.10;;;12.50;99.90;;;;;;5034020;28;20048;-84
2022/05/24 03:00:25;;;;;;;16.80;8.80;;;12.50;99.90;;;;;;5051022;28;20052;-84
2022/05/24 03:02:53;;;;;;;15.50;8.27;;;12.60;99.90;;;;;;5051737;28;20044;-83
2022/05/24 03:05:20;;;;;;;14.45;9.02;;;12.60;99.90;;;;;;5050330;28;20127;-84
2022/05/24 03:10:31;;;;;;;15.85;9.70;;;13.40;99.90;;;;;;5059402;28;20166;-84
2022/05/24 03:15:43;;;;;;;12.70;9.02;;;12.70;99.90;;;;;;5051352;28;20055;-83
2022/05/24 03:18:11;;;;;;;18.98;9.70;;;12.70;99.90;;;;;;5033297;28;20123;-85
2022/05/24 03:20:38;;;;;;;15.20;9.82;;;12.70;99.90;;;;;;5035159;28;20139;-84
2022/05/24 03:23:04;;;;;;;18.83;10.93;;;12.70;99.90;;;;;;5051581;28;20076;-84
2022/05/24 03:25:31;;;;;;;16.77;10.75;;;12.70;99.90;;;;;;5050863;28;20036;-85
2022/05/24 03:27:58;;;;;;;20.80;10.80;;;12.80;99.90;;;;;;5050374;28;20044;-84
2022/05/24 03:30:24;;;;;;;20.90;11.30;;;12.80;99.90;;;;;;5050896;28;20056;-84
2022/05/24 03:32:50;;;;;;;14.57;10.73;;;12.80;99.90;;;;;;5049923;28;20037;-84
2022/05/24 03:35:16;;;;;;;18.67;11.82;;;13.20;99.90;;;;;;5050703;28;20040;-84
2022/05/24 03:37:42;;;;;;;19.83;13.43;;;12.90;99.90;;;;;;5050965;28;20063;-84
2022/05/24 03:40:09;;;;;;;21.42;13.82;;;13.00;99.90;;;;;;5033525;28;20060;-84
2022/05/24 03:42:36;;;;;;;21.20;15.00;;;13.00;99.90;;;;;;5050722;28;20195;-84
2022/05/24 03:45:03;;;;;;;23.35;15.98;;;13.20;99.90;;;;;;5049521;28;20055;-84
2022/05/24 03:47:28;;;;;;;27.75;16.58;;;12.90;99.90;;;;;;5051023;28;20126;-84
2022/05/24 03:49:54;;;;;;;27.13;17.33;;;13.10;99.90;;;;;;5050130;28;20048;-83
2022/05/24 03:52:20;;;;;;;29.10;18.38;;;13.10;99.90;;;;;;5033598;28;20040;-83
2022/05/24 03:54:46;;;;;;;29.65;19.45;;;13.60;99.90;;;;;;5033740;28;20078;-84
2022/05/24 03:59:56;;;;;;;33.25;21.30;;;13.70;99.90;;;;;;5048785;28;20121;-83
2022/05/24 04:02:21;;;;;;;33.47;21.50;;;13.40;99.90;;;;;;5033715;28;20056;-84
2022/05/24 04:04:47;;;;;;;32.53;22.33;;;13.20;99.90;;;;;;5033834;28;20091;-88
2022/05/24 04:07:13;;;;;;;40.25;24.27;;;13.20;99.90;;;;;;5033503;28;20079;-87
2022/05/24 04:09:39;;;;;;;34.85;23.90;;;13.20;99.90;;;;;;5051115;28;20083;-87
2022/05/24 04:12:05;;;;;;;39.05;25.23;;;13.20;99.90;;;;;;5033188;28;20048;-86
2022/05/24 04:14:32;;;;;;;40.55;24.67;;;13.20;99.90;;;;;;5046031;28;20086;-85
2022/05/24 04:16:58;;;;;;;39.55;25.48;;;13.20;99.90;;;;;;5053737;28;20433;-85
2022/05/24 04:19:24;;;;;;;40.22;24.40;;;13.30;99.90;;;;;;5069558;28;20064;-85
2022/05/24 04:21:50;;;;;;;36.55;24.88;;;13.30;99.90;;;;;;5049920;28;20056;-85
2022/05/24 04:24:16;;;;;;;47.28;27.42;;;13.30;99.90;;;;;;5049319;28;20041;-85
2022/05/24 04:26:42;;;;;;;38.22;25.63;;;13.30;99.90;;;;;;5050153;28;20143;-84
2022/05/24 04:29:08;;;;;;;44.95;27.42;;;13.30;99.90;;;;;;5031177;28;20047;-84
2022/05/24 04:31:33;;;;;;;46.92;28.92;;;13.70;99.90;;;;;;5050431;28;20056;-84
2022/05/24 04:33:59;;;;;;;39.70;27.60;;;13.40;99.90;;;;;;5033791;28;20055;-83
2022/05/24 04:36:25;;;;;;;41.50;24.90;;;13.50;99.90;;;;;;5031629;28;20527;-84
2022/05/24 04:38:50;;;;;;;38.53;25.77;;;13.40;99.90;;;;;;5050318;28;20102;-84
2022/05/24 04:44:00;;;;;;;35.50;22.58;;;13.40;99.90;;;;;;5048763;28;20052;-84
2022/05/24 04:47:06;;;;;;;28.70;21.63;;;13.40;99.90;;;;;;5050123;28;20044;-84
2022/05/24 04:49:13;;;;;;;34.78;20.88;;;13.50;99.90;;;;;;5048363;28;20061;-83
2022/05/24 04:51:38;;;;;;;29.60;20.83;;;13.50;99.90;;;;;;5033309;28;20452;-84
2022/05/24 04:54:04;;;;;;;28.17;18.77;;;13.50;99.90;;;;;;5049149;28;20052;-84
2022/05/24 04:56:30;;;;;;;28.25;19.17;;;13.60;99.90;;;;;;5049217;28;20135;-84
2022/05/24 04:58:56;;;;;;;27.00;17.98;;;13.70;99.90;;;;;;5033179;28;20041;-84
2022/05/24 05:01:21;;;;;;;29.30;18.15;;;13.60;99.90;;;;;;5032902;28;20450;-84
2022/05/24 05:03:47;;;;;;;27.50;17.60;;;13.70;99.90;;;;;;5048920;28;20059;-84
2022/05/24 05:06:13;;;;;;;24.65;17.02;;;13.70;99.90;;;;;;5052624;28;20048;-84
2022/05/24 05:08:39;;;;;;;23.88;16.30;;;13.70;99.90;;;;;;5053676;28;20048;-84
2022/05/24 05:11:05;;;;;;;23.23;14.52;;;13.80;99.90;;;;;;5049121;28;20186;-83
2022/05/24 05:13:31;;;;;;;24.75;15.40;;;13.80;99.90;;;;;;5053469;28;20514;-84
2022/05/24 05:15:57;;;;;;;23.48;14.80;;;14.00;99.90;;;;;;5053471;28;20526;-84
2022/05/24 05:18:24;;;;;;;23.83;15.20;;;13.90;99.90;;;;;;5048681;28;20460;-84
2022/05/24 05:20:50;;;;;;;21.90;14.60;;;13.90;99.90;;;;;;5033385;28;20591;-84
2022/05/24 05:23:17;;;;;;;20.42;14.98;;;13.90;99.90;;;;;;5049624;28;20052;-84
2022/05/24 05:25:47;;;;;;;25.25;14.27;;;14.00;99.90;;;;;;5049633;28;20094;-84
2022/05/24 05:28:13;;;;;;;18.67;14.10;;;14.00;99.90;;;;;;5049125;28;20052;-84
2022/05/24 05:33:23;;;;;;;19.65;13.07;;;14.00;99.90;;;;;;5049313;28;20075;-84
2022/05/24 05:35:49;;;;;;;22.52;13.88;;;14.00;99.90;;;;;;5033580;28;20045;-84
2022/05/24 05:38:15;;;;;;;23.83;13.45;;;14.10;99.90;;;;;;5032004;28;20357;-83
2022/05/24 05:40:42;;;;;;;20.45;12.85;;;14.20;99.90;;;;;;5049661;28;20053;-83
2022/05/24 05:43:08;;;;;;;21.77;12.32;;;14.20;99.90;;;;;;5032412;28;20126;-83
2022/05/24 05:45:33;;;;;;;24.25;13.55;;;14.20;99.90;;;;;;5032619;28;20559;-83
2022/05/24 05:47:59;;;;;;;21.92;13.45;;;14.20;99.90;;;;;;5032835;28;20048;-84
2022/05/24 05:50:25;;;;;;;18.90;12.70;;;14.20;99.90;;;;;;5049490;28;20064;-83
2022/05/24 05:52:51;;;;;;;24.17;13.30;;;14.20;99.90;;;;;;5032023;28;20408;-83
2022/05/24 05:55:19;;;;;;;22.63;13.88;;;14.20;99.90;;;;;;5049450;28;20061;-83
2022/05/24 05:57:45;;;;;;;19.85;12.98;;;14.10;99.90;;;;;;5032325;28;20048;-84
2022/05/24 06:00:12;;;;;;;19.35;12.77;;;14.10;99.90;;;;;;5048547;28;20063;-84
2022/05/24 06:02:38;;;;;;;21.95;14.05;;;14.10;99.90;;;;;;5032992;28;20040;-84
2022/05/24 06:05:20;;;;;;;21.20;14.20;;;14.00;99.90;;;;;;5050475;28;20048;-85
2022/05/24 06:07:45;;;;;;;24.00;14.93;;;14.00;99.90;;;;;;5048397;28;20045;-84
2022/05/24 06:10:12;;;;;;;26.63;14.32;;;14.00;99.90;;;;;;5049394;28;20378;-86
2022/05/24 06:12:37;;;;;;;21.95;13.43;;;14.00;99.90;;;;;;5049408;28;20052;-87
2022/05/24 06:15:03;;;;;;;17.88;10.43;;;13.90;99.90;;;;;;5031651;28;20403;-87
2022/05/24 06:17:29;;;;;;;18.55;10.15;;;13.80;99.90;;;;;;5032995;28;20053;-85
2022/05/24 06:19:59;;;;;;;19.98;10.95;;;13.70;99.90;;;;;;5015158;28;20531;-86
2022/05/24 06:22:25;;;;;;;14.85;8.90;;;13.80;99.90;;;;;;5028588;28;20128;-86
2022/05/24 06:24:50;;;;;;;12.30;8.55;;;13.60;99.90;;;;;;5012433;28;20132;-85
2022/05/24 06:27:20;;;;;;;14.93;10.32;;;13.50;99.90;;;;;;5028270;28;20085;-85
2022/05/24 06:29:46;;;;;;;26.27;14.98;;;13.60;99.90;;;;;;5028099;28;20132;-84
2022/05/24 06:32:12;;;;;;;24.30;14.32;;;13.50;99.90;;;;;;5012270;28;20187;-84
2022/05/24 06:34:38;;;;;;;24.90;16.15;;;13.60;99.90;;;;;;5011784;28;20052;-85
2022/05/24 06:37:03;;;;;;;31.35;16.77;;;13.50;99.90;;;;;;5012069;28;20050;-84
2022/05/24 06:39:30;;;;;;;33.97;18.92;;;13.60;99.90;;;;;;5012621;28;20408;-84
2022/05/24 06:41:55;;;;;;;29.73;18.17;;;13.90;99.90;;;;;;5028079;28;20057;-84
2022/05/24 06:44:21;;;;;;;28.45;18.90;;;13.70;99.90;;;;;;5027342;28;20058;-85
2022/05/24 06:46:47;;;;;;;33.05;21.25;;;13.80;99.90;;;;;;5030061;28;20084;-85
2022/05/24 06:49:13;;;;;;;34.38;20.50;;;14.00;99.90;;;;;;5045279;28;20032;-84
2022/05/24 06:51:38;;;;;;;30.65;19.40;;;14.10;99.90;;;;;;5031463;28;20052;-84
2022/05/24 06:54:04;;;;;;;32.83;19.65;;;14.00;99.90;;;;;;5063126;28;20044;-84
2022/05/24 06:56:30;;;;;;;30.90;18.85;;;14.00;99.90;;;;;;5046751;28;20045;-83
2022/05/24 07:04:25;;;;;;;29.05;16.27;;;14.40;99.90;;;;;;5045629;28;20053;-82
2022/05/24 07:06:52;;;;;;;27.42;16.42;;;14.30;99.90;;;;;;5031224;28;20037;-85
2022/05/24 07:09:18;;;;;;;24.45;16.42;;;14.30;99.90;;;;;;5027043;28;20037;-85
2022/05/24 07:11:43;;;;;;;32.38;17.52;;;14.20;99.90;;;;;;5030638;28;20048;-85
2022/05/24 07:14:09;;;;;;;30.65;16.23;;;14.20;99.90;;;;;;5029344;28;20045;-85
2022/05/24 07:16:35;;;;;;;27.90;16.17;;;14.30;99.90;;;;;;5046321;28;20131;-85
2022/05/24 07:19:00;;;;;;;24.15;14.50;;;14.40;99.90;;;;;;5066622;28;20488;-85
2022/05/24 07:21:26;;;;;;;20.92;14.02;;;14.60;99.90;;;;;;5049993;28;20036;-85
2022/05/24 07:23:52;;;;;;;21.38;10.45;;;14.60;99.90;;;;;;5048888;28;20090;-84
2022/05/24 07:26:21;;;;;;;24.58;9.77;;;14.80;99.90;;;;;;5066374;28;20052;-88
2022/05/24 07:28:47;;;;;;;18.83;8.77;;;14.90;99.90;;;;;;5061439;28;20032;-84
2022/05/24 07:31:13;;;;;;;14.27;7.80;;;14.90;99.90;;;;;;5037197;28;20045;-84
2022/05/24 07:33:39;;;;;;;15.20;6.85;;;15.00;99.90;;;;;;5050125;28;20055;-84
2022/05/24 07:36:06;;;;;;;18.45;6.55;;;15.00;99.90;;;;;;5067429;28;20075;-83
2022/05/24 07:38:32;;;;;;;12.75;7.57;;;15.00;99.90;;;;;;5068224;28;20036;-83
2022/05/24 07:46:28;;;;;;;17.20;6.60;;;14.80;99.90;;;;;;5062630;28;20415;-84
2022/05/24 07:48:54;;;;;;;13.77;6.18;;;14.70;99.90;;;;;;5047214;28;20508;-85
2022/05/24 07:51:19;;;;;;;10.48;4.40;;;14.50;99.90;;;;;;5049274;28;20045;-84
2022/05/24 07:53:45;;;;;;;10.52;4.63;;;14.40;99.90;;;;;;5054047;28;20099;-84
2022/05/24 07:56:13;;;;;;;13.60;4.68;;;14.30;99.90;;;;;;5054079;28;20048;-85
2022/05/24 07:58:39;;;;;;;13.98;5.13;;;14.20;99.90;;;;;;5038222;28;20044;-84
2022/05/24 08:01:04;;;;;;;11.27;4.75;;;14.20;99.90;;;;;;5053726;28;20056;-84
2022/05/24 08:03:30;;;;;;;10.90;4.43;;;14.10;99.90;;;;;;5056641;28;20044;-84
2022/05/24 08:05:56;;;;;;;11.30;4.60;;;14.00;99.90;;;;;;5056927;28;20143;-84
2022/05/24 08:08:22;;;;;;;10.95;4.57;;;14.00;99.90;;;;;;5034075;28;20106;-85
2022/05/24 08:10:48;;;;;;;18.15;5.32;;;13.90;99.90;;;;;;5057566;28;20044;-88
2022/05/24 08:13:23;;;;;;;16.27;5.75;;;13.90;99.90;;;;;;5039984;28;20044;-91
2022/05/24 08:15:51;;;;;;;14.95;5.20;;;14.30;99.90;;;;;;5054786;28;20079;-85
2022/05/24 08:18:20;;;;;;;13.25;6.22;;;13.80;99.90;;;;;;5048887;28;20061;-89
2022/05/24 08:21:20;;;;;;;;;;;;;;;;;;;;;
2022/05/24 08:24:09;;;;;;;9.82;4.35;;;13.70;99.90;;;;;;5044041;28;20084;-87
2022/05/24 08:26:54;;;;;;;17.60;5.40;;;13.60;99.90;;;;;;5031509;28;20041;-88
2022/05/24 08:30:39;;;;;;;;;;;;;;;;;;;;;
2022/05/24 08:32:43;;;;;;;;;;;;;;;;;;;;;
2022/05/24 08:35:18;;;;;;;14.88;4.90;;;13.50;99.90;;;;;;5046322;28;20043;-87
2022/05/24 08:37:45;;;;;;;13.02;5.13;;;13.40;99.90;;;;;;5048058;28;20530;-88
2022/05/24 08:40:24;;;;;;;;;;;;;;;;;;;;;
2022/05/24 08:43:21;;;;;;;;;;;;;;;;;;;;;
2022/05/24 08:48:44;;;;;;;12.07;6.57;;;13.70;99.90;;;;;;5026228;28;20061;-87
2022/05/24 08:51:17;;;;;;;10.43;5.47;;;14.10;99.90;;;;;;5026148;28;20219;-87
2022/05/24 08:53:46;;;;;;;11.45;5.22;;;14.30;99.90;;;;;;5026948;28;20120;-87
2022/05/24 08:56:18;;;;;;;12.15;6.32;;;14.50;99.90;;;;;;5009641;28;20068;-86
2022/05/24 08:58:50;;;;;;;14.18;7.57;;;14.70;99.90;;;;;;5025670;28;20044;-86
2022/05/24 09:01:21;;;;;;;14.73;7.57;;;14.90;99.90;;;;;;5009770;28;20050;-85
2022/05/24 09:03:47;;;;;;;14.98;7.10;;;15.00;99.90;;;;;;5025627;28;20463;-85
2022/05/24 09:06:24;;;;;;;15.25;7.05;;;15.00;99.90;;;;;;5026595;28;20528;-86
2022/05/24 09:09:06;;;;;;;13.50;7.05;;;15.20;99.90;;;;;;5026153;28;20057;-85
2022/05/24 09:11:47;;;;;;;15.18;7.60;;;15.40;99.90;;;;;;5043451;28;20053;-85
2022/05/24 09:14:18;;;;;;;12.90;7.03;;;15.50;99.90;;;;;;5025203;28;20048;-85
2022/05/24 09:17:01;;;;;;;15.13;6.55;;;15.70;99.90;;;;;;5025726;28;20051;-85
2022/05/24 09:19:33;;;;;;;15.43;6.57;;;15.60;99.90;;;;;;5038847;28;20056;-85
2022/05/24 09:22:03;;;;;;;16.15;6.93;;;15.70;99.90;;;;;;5046639;28;20052;-85
2022/05/24 09:24:42;;;;;;;15.77;8.10;;;15.70;99.90;;;;;;5045240;28;20049;-85
2022/05/24 09:27:13;;;;;;;15.77;8.32;;;15.60;99.90;;;;;;5045650;28;20053;-85
2022/05/24 09:29:53;;;;;;;14.90;7.22;;;15.50;99.90;;;;;;5045543;28;20049;-84
2022/05/24 09:32:20;;;;;;;15.68;7.07;;;15.50;99.90;;;;;;5045083;28;20049;-84
2022/05/24 09:34:46;;;;;;;14.13;6.25;;;15.30;99.90;;;;;;5029293;28;20037;-84
2022/05/24 09:37:27;;;;;;;11.70;6.40;;;15.20;99.90;;;;;;5044941;28;20053;-84
2022/05/24 09:40:04;;;;;;;11.52;3.80;;;15.00;99.90;;;;;;5046766;28;20124;-84
2022/05/24 09:42:34;;;;;;;10.48;3.67;;;14.70;99.90;;;;;;5029456;28;20095;-85
2022/05/24 09:45:01;;;;;;;7.78;2.90;;;14.40;99.90;;;;;;5045463;28;20491;-85
2022/05/24 09:47:50;;;;;;;8.63;3.30;;;14.20;99.90;;;;;;5045960;28;20045;-84
2022/05/24 09:50:16;;;;;;;6.35;2.45;;;14.00;99.90;;;;;;5046235;28;20093;-84
2022/05/24 09:53:04;;;;;;;6.30;2.65;;;14.00;99.90;;;;;;5048858;28;20056;-85
2022/05/24 09:55:38;;;;;;;6.05;2.83;;;14.00;99.90;;;;;;5049533;28;20495;-84
2022/05/24 09:58:25;;;;;;;5.97;2.40;;;14.10;99.90;;;;;;5048282;28;20053;-84
2022/05/24 10:00:52;;;;;;;5.30;1.98;;;14.30;99.90;;;;;;5049686;28;20045;-85
2022/05/24 10:03:22;;;;;;;5.70;2.17;;;14.40;99.90;;;;;;5032914;28;20076;-84
2022/05/24 10:06:03;;;;;;;8.30;1.98;;;14.60;99.90;;;;;;5032048;28;20110;-84
2022/05/24 10:08:35;;;;;;;5.60;2.25;;;14.80;99.90;;;;;;5049206;28;20045;-85
2022/05/24 10:11:03;;;;;;;3.70;1.75;;;15.10;99.90;;;;;;5032891;28;20052;-85
2022/05/24 10:13:45;;;;;;;5.07;2.00;;;15.30;99.90;;;;;;5047476;28;20484;-84
2022/05/24 10:16:17;;;;;;;6.80;1.52;;;15.50;99.90;;;;;;5031958;28;20049;-84
2022/05/24 10:19:08;;;;;;;3.33;1.50;;;15.60;99.90;;;;;;5049101;28;20400;-84
2022/05/24 10:21:40;;;;;;;6.85;1.52;;;15.60;99.90;;;;;;5032139;28;20136;-84
2022/05/24 10:24:27;;;;;;;5.50;1.77;;;15.80;99.90;;;;;;5032302;28;20053;-84
2022/05/24 10:27:13;;;;;;;6.18;1.25;;;16.00;99.90;;;;;;5032553;28;20037;-84
2022/05/24 10:29:42;;;;;;;5.70;1.50;;;16.10;99.90;;;;;;5048218;28;20484;-84
2022/05/24 10:38:45;;;;;;;6.32;1.90;;;15.90;99.90;;;;;;5048818;28;20060;-84
2022/05/24 10:41:39;;;;;;;6.00;1.50;;;15.90;99.90;;;;;;5030970;28;20045;-84
2022/05/24 10:44:13;;;;;;;5.78;1.30;;;15.80;99.90;;;;;;5047083;28;20059;-84
2022/05/24 10:46:45;;;;;;;9.77;1.70;;;15.60;99.90;;;;;;5049201;28;20052;-85
2022/05/24 10:49:36;;;;;;;5.18;1.48;;;15.30;99.90;;;;;;5030518;28;20052;-86
2022/05/24 10:52:26;;;;;;;8.90;1.77;;;15.00;99.90;;;;;;5048959;28;20059;-86
2022/05/24 10:55:17;;;;;;;5.28;2.03;;;14.70;99.90;;;;;;5031771;28;20132;-87
2022/05/24 10:58:05;;;;;;;5.88;1.80;;;14.80;99.90;;;;;;5064853;28;20475;-89
2022/05/24 11:01:10;;;;;;;;;;;;;;;;;;;;;
2022/05/24 11:04:08;;;;;;;4.25;1.42;;;14.30;99.90;;;;;;5047999;28;20122;-88
2022/05/24 11:06:39;;;;;;;4.35;1.67;;;14.20;99.90;;;;;;5050359;28;20048;-87
2022/05/24 11:09:17;;;;;;;6.57;2.47;;;14.50;99.90;;;;;;5047487;28;20048;-86
2022/05/24 11:12:18;;;;;;;5.38;1.50;;;14.60;99.90;;;;;;5032661;28;20041;-87
2022/05/24 11:14:48;;;;;;;5.47;1.33;;;14.90;99.90;;;;;;5047189;28;20053;-88
2022/05/24 11:17:16;;;;;;;3.88;1.40;;;14.90;99.90;;;;;;5030955;28;20060;-87
2022/05/24 11:19:45;;;;;;;8.57;1.45;;;14.80;99.90;;;;;;5016315;28;20064;-87
2022/05/24 11:22:41;;;;;;;9.15;1.23;;;14.70;99.90;;;;;;5028607;28;20050;-86
2022/05/24 11:25:12;;;;;;;3.15;1.25;;;14.50;99.90;;;;;;5011638;28;20056;-87
2022/05/24 11:27:41;;;;;;;4.80;1.58;;;14.40;99.90;;;;;;5028814;28;20626;-87
2022/05/24 11:30:12;;;;;;;7.03;1.95;;;14.40;99.90;;;;;;5026873;28;20045;-87
2022/05/24 11:32:44;;;;;;;7.60;1.80;;;14.70;99.90;;;;;;5012189;28;20404;-87
2022/05/24 11:35:23;;;;;;;3.45;1.40;;;15.00;99.90;;;;;;5011129;28;20179;-86
2022/05/24 11:37:55;;;;;;;4.88;1.77;;;15.30;99.90;;;;;;5010659;28;20049;-86
2022/05/24 11:40:38;;;;;;;4.40;1.60;;;15.30;99.90;;;;;;5011010;28;20053;-86
2022/05/24 11:43:09;;;;;;;;;;;15.20;99.90;;;;;;5010783;28;20045;-87
2022/05/24 11:45:53;;;;;;;3.17;1.35;;;15.00;99.90;;;;;;5027761;28;19948;-86
2022/05/24 11:48:20;;;;;;;3.95;0.85;;;15.20;99.90;;;;;;5027354;28;20053;-86
2022/05/24 11:50:50;;;;;;;3.38;0.82;;;15.40;99.90;;;;;;5010230;28;20053;-85
2022/05/24 11:53:21;;;;;;;4.15;1.10;;;15.70;99.90;;;;;;5027813;28;20414;-85
2022/05/24 11:56:09;;;;;;;4.90;0.82;;;15.90;99.90;;;;;;5011032;28;20530;-85
2022/05/24 11:58:35;;;;;;;1.75;0.70;;;16.10;99.90;;;;;;5028617;28;20049;-84
2022/05/24 12:01:30;;;;;;;5.25;1.20;;;16.30;99.90;;;;;;5047258;28;20097;-84
2022/05/24 12:09:59;;;;;;;2.22;0.90;;;16.40;99.90;;;;;;5047766;28;20077;-84
2022/05/24 12:12:37;;;;;;;3.65;0.98;;;16.30;99.90;;;;;;5007635;28;20041;-84
2022/05/24 12:15:17;;;;;;;4.80;1.02;;;16.30;99.90;;;;;;5027530;28;20048;-84
2022/05/24 12:17:45;;;;;;;2.65;0.70;;;16.50;99.90;;;;;;5015971;28;20114;-85
2022/05/24 12:20:33;;;;;;;4.00;0.93;;;16.50;99.90;;;;;;5009390;28;20068;-85
2022/05/24 12:23:04;;;;;;;4.60;0.88;;;16.30;99.90;;;;;;5009772;28;20050;-86
2022/05/24 12:25:51;;;;;;;4.72;1.17;;;16.10;99.90;;;;;;5009452;28;20099;-85
2022/05/24 12:28:20;;;;;;;7.65;1.05;;;16.00;99.90;;;;;;5009503;28;20051;-85
2022/05/24 12:30:49;;;;;;;3.80;0.80;;;15.90;99.90;;;;;;5010403;28;20404;-85
2022/05/24 12:33:25;;;;;;;8.30;0.90;;;15.70;99.90;;;;;;5025858;28;20405;-85
2022/05/24 12:36:16;;;;;;;3.20;0.70;;;15.90;99.90;;;;;;5010532;28;20041;-84
2022/05/24 12:38:49;;;;;;;4.28;0.98;;;16.10;99.90;;;;;;5033264;28;20096;-84
2022/05/24 12:41:22;;;;;;;;;;;16.50;99.90;;;;;;5009104;28;20136;-83
2022/05/24 12:43:52;;;;;;;6.85;1.30;;;16.60;99.90;;;;;;5026200;28;19921;-85
2022/05/24 12:46:18;;;;;;;5.72;1.17;;;16.50;99.90;;;;;;5009847;28;20037;-84
2022/05/24 12:49:30;;;;;;;9.35;1.40;;;16.20;99.90;;;;;;5027474;28;20064;-89
2022/05/24 12:53:17;;;;;;;;;;;;;;;;;;;;;
2022/05/24 12:56:02;;;;;;;7.15;1.10;;;15.40;99.90;;;;;;4998852;28;20057;-86
2022/05/24 12:58:43;;;;;;;;;;;;;;;;;;;;;
2022/05/24 13:01:28;;;;;;;5.63;0.80;;;15.40;99.90;;;;;;5025786;28;20059;-86
2022/05/24 13:04:19;;;;;;;2.90;0.70;;;15.70;99.90;;;;;;5026857;28;20053;-85
2022/05/24 13:06:46;;;;;;;6.30;1.33;;;16.00;99.90;;;;;;5010891;28;20052;-85
2022/05/24 13:09:26;;;;;;;4.95;1.02;;;16.40;99.90;;;;;;5009566;28;20053;-86
2022/05/24 13:12:04;;;;;;;4.53;0.93;;;16.60;99.90;;;;;;5010686;28;20045;-86
2022/05/24 13:14:45;;;;;;;8.82;1.48;;;16.50;99.90;;;;;;5026443;28;20046;-85
2022/05/24 13:17:17;;;;;;;10.23;1.65;;;16.50;99.90;;;;;;5025183;28;20045;-84
2022/05/24 13:19:51;;;;;;;6.22;1.33;;;16.60;99.90;;;;;;5041346;28;20110;-84
2022/05/24 13:22:39;;;;;;;5.20;0.82;;;16.80;99.90;;;;;;5045106;28;20110;-82
2022/05/24 13:25:11;;;;;;;7.25;0.77;;;16.80;99.90;;;;;;5029911;28;20045;-82
2022/05/24 13:27:49;;;;;;;6.40;0.70;;;16.70;99.90;;;;;;5048963;28;20143;-82
2022/05/24 13:35:50;;;;;;;6.05;0.80;;;17.00;99.90;;;;;;5050209;28;20053;-82
2022/05/24 13:38:23;;;;;;;7.22;1.00;;;17.00;99.90;;;;;;5050432;28;20115;-82
2022/05/24 13:40:51;;;;;;;;;;;17.00;99.90;;;;;;5050527;28;20076;-82
2022/05/24 13:43:36;;;;;;;2.80;0.88;;;16.80;99.90;;;;;;5047457;28;20386;-82
2022/05/24 13:46:07;;;;;;;5.05;0.80;;;16.60;99.90;;;;;;5065911;28;20480;-82
2022/05/24 13:48:42;;;;;;;3.45;0.60;;;16.40;99.90;;;;;;5049967;28;20075;-82
2022/05/24 13:51:16;;;;;;;4.57;0.93;;;16.20;99.90;;;;;;5048461;28;20076;-83
2022/05/24 13:53:42;;;;;;;7.13;1.00;;;16.10;99.90;;;;;;5050098;28;20205;-82
2022/05/24 13:56:17;;;;;;;3.58;0.85;;;16.10;99.90;;;;;;5051200;28;20469;-81
2022/05/24 13:58:49;;;;;;;4.72;0.70;;;15.90;99.90;;;;;;5049658;28;20395;-82
2022/05/24 14:01:25;;;;;;;4.80;0.90;;;15.90;99.90;;;;;;5049192;28;20085;-81
2022/05/24 14:03:54;;;;;;;4.70;0.98;;;15.80;99.90;;;;;;5049612;28;20068;-81
2022/05/24 14:06:25;;;;;;;4.85;1.17;;;15.80;99.90;;;;;;5031571;28;20037;-81